sensor_id;sensor_type;location;lat;lon;timestamp;temperature;humidity
40630;DHT22;26329;40.388;-3.710;2022-12-07T00:11:23;11.50;86.70
40630;DHT22;26329;40.388;-3.710;2022-12-07T00:21:33;11.50;86.80
40630;DHT22;26329;40.388;-3.710;2022-12-07T00:31:46;11.50;87.00
40630;DHT22;26329;40.388;-3.710;2022-12-07T00:41:51;11.50;87.20
40630;DHT22;26329;40.388;-3.710;2022-12-07T00:51:56;11.50;87.10
40630;DHT22;26329;40.388;-3.710;2022-12-07T01:01:58;11.50;87.10
40630;DHT22;26329;40.388;-3.710;2022-12-07T01:12:03;11.40;87.10
40630;DHT22;26329;40.388;-3.710;2022-12-07T01:22:05;11.40;87.10
40630;DHT22;26329;40.388;-3.710;2022-12-07T01:32:12;11.30;87.10
40630;DHT22;26329;40.388;-3.710;2022-12-07T01:42:15;11.30;87.10
40630;DHT22;26329;40.388;-3.710;2022-12-07T01:52:22;11.20;87.20
40630;DHT22;26329;40.388;-3.710;2022-12-07T02:02:31;11.10;87.30
40630;DHT22;26329;40.388;-3.710;2022-12-07T02:12:37;10.90;87.30
40630;DHT22;26329;40.388;-3.710;2022-12-07T02:33:24;10.80;87.40
40630;DHT22;26329;40.388;-3.710;2022-12-07T02:43:45;10.80;87.40
40630;DHT22;26329;40.388;-3.710;2022-12-07T02:53:54;10.80;87.50
40630;DHT22;26329;40.388;-3.710;2022-12-07T03:15:12;10.90;87.40
40630;DHT22;26329;40.388;-3.710;2022-12-07T03:25:26;10.90;87.50
40630;DHT22;26329;40.388;-3.710;2022-12-07T03:35:45;10.90;87.50
40630;DHT22;26329;40.388;-3.710;2022-12-07T03:46:27;10.90;87.50
40630;DHT22;26329;40.388;-3.710;2022-12-07T03:56:37;10.90;87.60
40630;DHT22;26329;40.388;-3.710;2022-12-07T04:06:41;11.00;87.50
40630;DHT22;26329;40.388;-3.710;2022-12-07T04:16:55;10.90;87.50
40630;DHT22;26329;40.388;-3.710;2022-12-07T04:27:02;10.90;87.50
40630;DHT22;26329;40.388;-3.710;2022-12-07T04:37:06;10.90;87.50
40630;DHT22;26329;40.388;-3.710;2022-12-07T04:47:11;10.80;87.50
40630;DHT22;26329;40.388;-3.710;2022-12-07T04:57:15;10.80;87.50
40630;DHT22;26329;40.388;-3.710;2022-12-07T05:07:19;10.80;87.50
40630;DHT22;26329;40.388;-3.710;2022-12-07T05:17:22;10.70;87.50
40630;DHT22;26329;40.388;-3.710;2022-12-07T05:27:24;10.60;87.50
40630;DHT22;26329;40.388;-3.710;2022-12-07T05:37:27;10.60;87.60
40630;DHT22;26329;40.388;-3.710;2022-12-07T05:47:31;10.60;87.60
40630;DHT22;26329;40.388;-3.710;2022-12-07T05:57:33;10.50;87.70
40630;DHT22;26329;40.388;-3.710;2022-12-07T06:07:35;10.50;87.70
40630;DHT22;26329;40.388;-3.710;2022-12-07T06:17:37;10.50;87.70
40630;DHT22;26329;40.388;-3.710;2022-12-07T06:27:39;10.50;87.60
40630;DHT22;26329;40.388;-3.710;2022-12-07T06:37:41;10.40;87.60
40630;DHT22;26329;40.388;-3.710;2022-12-07T06:47:43;10.40;87.80
40630;DHT22;26329;40.388;-3.710;2022-12-07T06:57:44;10.50;87.90
40630;DHT22;26329;40.388;-3.710;2022-12-07T07:07:46;10.70;87.80
40630;DHT22;26329;40.388;-3.710;2022-12-07T07:17:49;10.80;87.70
40630;DHT22;26329;40.388;-3.710;2022-12-07T07:27:50;10.80;87.60
40630;DHT22;26329;40.388;-3.710;2022-12-07T07:37:52;10.90;87.40
40630;DHT22;26329;40.388;-3.710;2022-12-07T07:47:54;10.90;87.40
40630;DHT22;26329;40.388;-3.710;2022-12-07T07:57:55;10.90;87.50
40630;DHT22;26329;40.388;-3.710;2022-12-07T08:07:57;11.00;87.40
40630;DHT22;26329;40.388;-3.710;2022-12-07T08:17:59;11.10;87.30
40630;DHT22;26329;40.388;-3.710;2022-12-07T08:28:01;11.30;87.00
40630;DHT22;26329;40.388;-3.710;2022-12-07T08:38:03;11.30;86.80
40630;DHT22;26329;40.388;-3.710;2022-12-07T08:48:10;11.40;86.60
40630;DHT22;26329;40.388;-3.710;2022-12-07T08:58:14;11.50;86.30
40630;DHT22;26329;40.388;-3.710;2022-12-07T09:08:15;11.60;85.90
40630;DHT22;26329;40.388;-3.710;2022-12-07T09:18:17;11.70;85.40
40630;DHT22;26329;40.388;-3.710;2022-12-07T09:28:19;11.80;84.80
40630;DHT22;26329;40.388;-3.710;2022-12-07T09:38:21;11.90;83.80
40630;DHT22;26329;40.388;-3.710;2022-12-07T09:48:36;12.10;83.70
40630;DHT22;26329;40.388;-3.710;2022-12-07T09:58:41;12.30;82.90
40630;DHT22;26329;40.388;-3.710;2022-12-07T10:08:43;12.50;79.40
40630;DHT22;26329;40.388;-3.710;2022-12-07T10:18:45;13.90;74.30
40630;DHT22;26329;40.388;-3.710;2022-12-07T10:28:46;14.40;72.00
40630;DHT22;26329;40.388;-3.710;2022-12-07T10:38:51;14.30;72.70
40630;DHT22;26329;40.388;-3.710;2022-12-07T10:49:10;14.80;71.80
40630;DHT22;26329;40.388;-3.710;2022-12-07T10:59:24;14.90;72.00
40630;DHT22;26329;40.388;-3.710;2022-12-07T11:09:47;15.10;70.60
40630;DHT22;26329;40.388;-3.710;2022-12-07T11:30:26;15.20;70.70
40630;DHT22;26329;40.388;-3.710;2022-12-07T11:40:33;15.30;70.60
40630;DHT22;26329;40.388;-3.710;2022-12-07T11:50:41;15.40;70.20
40630;DHT22;26329;40.388;-3.710;2022-12-07T12:00:43;15.30;70.30
40630;DHT22;26329;40.388;-3.710;2022-12-07T12:21:31;15.50;69.80
40630;DHT22;26329;40.388;-3.710;2022-12-07T12:31:39;15.40;68.70
40630;DHT22;26329;40.388;-3.710;2022-12-07T13:02:37;14.30;70.60
40630;DHT22;26329;40.388;-3.710;2022-12-07T13:12:40;14.20;71.90
40630;DHT22;26329;40.388;-3.710;2022-12-07T13:22:43;14.30;71.90
40630;DHT22;26329;40.388;-3.710;2022-12-07T13:32:56;14.40;71.40
40630;DHT22;26329;40.388;-3.710;2022-12-07T13:43:00;14.50;71.70
40630;DHT22;26329;40.388;-3.710;2022-12-07T13:53:12;14.40;71.60
40630;DHT22;26329;40.388;-3.710;2022-12-07T14:13:34;14.30;71.20
40630;DHT22;26329;40.388;-3.710;2022-12-07T14:23:38;14.50;70.70
40630;DHT22;26329;40.388;-3.710;2022-12-07T14:33:40;14.30;71.20
40630;DHT22;26329;40.388;-3.710;2022-12-07T14:43:42;14.30;70.30
40630;DHT22;26329;40.388;-3.710;2022-12-07T14:53:50;14.30;70.40
40630;DHT22;26329;40.388;-3.710;2022-12-07T15:03:52;14.30;70.60
40630;DHT22;26329;40.388;-3.710;2022-12-07T15:13:53;14.30;70.70
40630;DHT22;26329;40.388;-3.710;2022-12-07T15:24:11;14.20;72.00
40630;DHT22;26329;40.388;-3.710;2022-12-07T15:34:13;14.10;72.20
40630;DHT22;26329;40.388;-3.710;2022-12-07T15:44:15;14.00;72.40
40630;DHT22;26329;40.388;-3.710;2022-12-07T15:54:35;13.90;72.20
40630;DHT22;26329;40.388;-3.710;2022-12-07T16:04:37;13.70;73.00
40630;DHT22;26329;40.388;-3.710;2022-12-07T16:14:39;13.60;73.40
40630;DHT22;26329;40.388;-3.710;2022-12-07T16:24:41;13.60;73.70
40630;DHT22;26329;40.388;-3.710;2022-12-07T16:34:42;14.40;70.60
40630;DHT22;26329;40.388;-3.710;2022-12-07T16:44:44;13.80;72.90
40630;DHT22;26329;40.388;-3.710;2022-12-07T16:54:47;13.50;73.60
40630;DHT22;26329;40.388;-3.710;2022-12-07T17:04:49;13.30;74.40
40630;DHT22;26329;40.388;-3.710;2022-12-07T17:14:51;13.10;75.00
40630;DHT22;26329;40.388;-3.710;2022-12-07T17:25:11;13.00;76.00
40630;DHT22;26329;40.388;-3.710;2022-12-07T17:35:13;12.80;77.00
40630;DHT22;26329;40.388;-3.710;2022-12-07T17:45:15;12.80;77.10
40630;DHT22;26329;40.388;-3.710;2022-12-07T17:55:16;13.10;76.90
40630;DHT22;26329;40.388;-3.710;2022-12-07T18:05:18;12.80;77.80
40630;DHT22;26329;40.388;-3.710;2022-12-07T18:15:20;13.10;76.60
40630;DHT22;26329;40.388;-3.710;2022-12-07T18:25:21;12.70;78.10
40630;DHT22;26329;40.388;-3.710;2022-12-07T18:35:23;12.60;78.90
40630;DHT22;26329;40.388;-3.710;2022-12-07T18:45:25;12.40;79.90
40630;DHT22;26329;40.388;-3.710;2022-12-07T18:55:27;12.30;80.20
40630;DHT22;26329;40.388;-3.710;2022-12-07T19:05:29;12.20;80.20
40630;DHT22;26329;40.388;-3.710;2022-12-07T19:15:31;12.10;80.60
40630;DHT22;26329;40.388;-3.710;2022-12-07T19:25:33;11.90;81.00
40630;DHT22;26329;40.388;-3.710;2022-12-07T19:35:38;11.80;81.20
40630;DHT22;26329;40.388;-3.710;2022-12-07T19:45:40;11.70;81.30
40630;DHT22;26329;40.388;-3.710;2022-12-07T19:55:42;11.60;81.70
40630;DHT22;26329;40.388;-3.710;2022-12-07T20:05:44;11.40;81.90
40630;DHT22;26329;40.388;-3.710;2022-12-07T20:15:46;11.30;82.00
40630;DHT22;26329;40.388;-3.710;2022-12-07T20:25:47;11.10;82.40
40630;DHT22;26329;40.388;-3.710;2022-12-07T20:35:49;11.00;82.50
40630;DHT22;26329;40.388;-3.710;2022-12-07T20:45:51;10.80;82.50
40630;DHT22;26329;40.388;-3.710;2022-12-07T20:55:52;10.70;82.70
40630;DHT22;26329;40.388;-3.710;2022-12-07T21:05:54;10.70;82.70
40630;DHT22;26329;40.388;-3.710;2022-12-07T21:15:56;10.60;82.90
40630;DHT22;26329;40.388;-3.710;2022-12-07T21:26:00;10.60;83.00
40630;DHT22;26329;40.388;-3.710;2022-12-07T21:36:03;10.50;83.00
40630;DHT22;26329;40.388;-3.710;2022-12-07T21:46:05;10.40;83.00
40630;DHT22;26329;40.388;-3.710;2022-12-07T21:56:21;10.20;83.10
40630;DHT22;26329;40.388;-3.710;2022-12-07T22:06:24;10.10;83.00
40630;DHT22;26329;40.388;-3.710;2022-12-07T22:16:26;10.00;83.00
40630;DHT22;26329;40.388;-3.710;2022-12-07T22:26:28;9.90;83.00
40630;DHT22;26329;40.388;-3.710;2022-12-07T22:36:30;9.90;82.90
40630;DHT22;26329;40.388;-3.710;2022-12-07T22:46:32;9.80;82.90
40630;DHT22;26329;40.388;-3.710;2022-12-07T22:56:36;9.70;82.90
40630;DHT22;26329;40.388;-3.710;2022-12-07T23:06:38;9.60;83.00
40630;DHT22;26329;40.388;-3.710;2022-12-07T23:16:40;9.70;82.90
40630;DHT22;26329;40.388;-3.710;2022-12-07T23:26:44;9.70;82.80
40630;DHT22;26329;40.388;-3.710;2022-12-07T23:36:45;9.70;82.80
40630;DHT22;26329;40.388;-3.710;2022-12-07T23:46:47;9.80;83.00
40630;DHT22;26329;40.388;-3.710;2022-12-07T23:56:49;9.80;82.90
